Time;durP1;ratioP1;P1;durP2;ratioP2;P2;SDS_P1;SDS_P2;PMS_P1;PMS_P2;Temp;Humidity;BMP_temperature;BMP_pressure;BME280_temperature;BME280_humidity;BME280_pressure;Samples;Min_cycle;Max_cycle;Signal;HPM_P1;HPM_P2
2021/08/29 00:00:28;;;;;;;7.78;5.78;;;;;;;24.02;48.75;102712.22;5051029;28;20056;-71
2021/08/29 00:02:53;;;;;;;6.53;4.90;;;;;;;24.02;48.80;102712.22;5052411;28;20048;-71
2021/08/29 00:05:19;;;;;;;7.80;5.65;;;;;;;24.02;48.80;102714.06;5061449;28;20210;-71
2021/08/29 00:07:44;;;;;;;6.55;5.43;;;;;;;24.03;48.74;102715.72;5101371;28;20039;-72
2021/08/29 00:10:10;;;;;;;8.10;5.47;;;;;;;24.03;48.66;102716.56;5077330;28;20055;-72
2021/08/29 00:12:36;;;;;;;8.43;4.78;;;;;;;24.04;48.78;102718.22;5092504;28;20071;-72
2021/08/29 00:15:02;;;;;;;7.35;5.22;;;;;;;24.04;48.47;102712.03;5086329;28;20059;-72
2021/08/29 00:17:27;;;;;;;8.00;5.22;;;;;;;24.03;48.47;102711.19;5084956;28;20032;-73
2021/08/29 00:19:53;;;;;;;6.22;4.72;;;;;;;24.02;48.53;102714.06;5103521;28;20027;-72
2021/08/29 00:22:18;;;;;;;8.52;5.60;;;;;;;24.03;48.54;102713.03;5095550;28;20457;-72
2021/08/29 00:24:44;;;;;;;7.95;5.25;;;;;;;24.02;48.90;102704.16;5094898;28;20064;-72
2021/08/29 00:27:09;;;;;;;7.35;5.20;;;;;;;24.02;48.88;102708.69;5086195;28;20059;-72
2021/08/29 00:29:35;;;;;;;6.70;4.85;;;;;;;24.03;48.44;102711.19;5100344;28;20040;-72
2021/08/29 00:32:01;;;;;;;7.65;5.13;;;;;;;24.04;48.76;102712.03;5057210;28;20345;-72
2021/08/29 00:34:26;;;;;;;8.55;5.93;;;;;;;24.03;48.75;102708.50;5096897;28;20042;-72
2021/08/29 00:36:52;;;;;;;7.15;5.38;;;;;;;24.02;48.68;102709.53;5095796;28;20390;-71
2021/08/29 00:39:18;;;;;;;7.50;5.18;;;;;;;24.03;48.54;102708.50;5065750;28;20036;-72
2021/08/29 00:41:44;;;;;;;8.05;5.72;;;;;;;24.04;48.74;102702.13;5091632;28;20027;-72
2021/08/29 00:44:12;;;;;;;6.82;4.90;;;;;;;24.02;48.62;102703.34;5091452;28;20495;-72
2021/08/29 00:46:39;;;;;;;7.05;4.93;;;;;;;24.03;48.57;102699.63;5098699;28;20031;-72
2021/08/29 00:49:04;;;;;;;7.28;5.45;;;;;;;24.03;48.59;102699.63;5106597;28;20109;-72
2021/08/29 00:51:35;;;;;;;7.88;5.32;;;;;;;24.03;48.44;102694.28;5071069;28;20044;-72
2021/08/29 00:54:01;;;;;;;7.72;5.60;;;;;;;24.02;48.52;102697.97;5103501;28;20084;-72
2021/08/29 00:56:27;;;;;;;7.35;5.00;;;;;;;24.03;48.51;102697.78;5102612;28;20035;-72
2021/08/29 00:58:54;;;;;;;8.30;5.82;;;;;;;24.03;48.50;102699.63;5101426;28;20030;-72
2021/08/29 01:01:23;;;;;;;8.43;5.47;;;;;;;24.04;48.49;102698.63;5096237;28;20156;-72
2021/08/29 01:03:53;;;;;;;7.13;5.13;;;;;;;24.03;48.73;102696.94;5089475;28;20036;-72
2021/08/29 01:06:36;;;;;;;7.53;5.03;;;;;;;24.00;48.79;102700.84;5070064;28;20032;-72
2021/08/29 01:09:07;;;;;;;7.50;5.25;;;;;;;24.02;48.43;102692.59;5075318;28;20035;-72
2021/08/29 01:11:36;;;;;;;7.97;5.00;;;;;;;24.02;48.54;102688.06;5050247;28;20203;-72
2021/08/29 01:14:07;;;;;;;8.55;5.97;;;;;;;24.01;48.70;102691.78;5104457;28;20093;-73
2021/08/29 01:16:35;;;;;;;9.23;5.70;;;;;;;24.04;48.69;102687.91;5098332;28;20035;-72
2021/08/29 01:19:06;;;;;;;6.63;5.13;;;;;;;24.02;48.53;102692.59;5103393;28;20545;-72
2021/08/29 01:21:35;;;;;;;7.85;5.53;;;;;;;24.02;48.48;102688.06;5094794;28;20032;-72
2021/08/29 01:24:08;;;;;;;7.85;5.30;;;;;;;24.02;48.60;102689.94;5101763;28;20046;-71
2021/08/29 01:26:47;;;;;;;9.38;5.90;;;;;;;24.01;48.39;102697.13;5084405;28;20058;-72
2021/08/29 01:29:15;;;;;;;8.48;5.53;;;;;;;24.03;48.51;102694.28;5101957;28;20077;-71
2021/08/29 01:31:42;;;;;;;7.07;5.25;;;;;;;24.02;48.28;102698.81;5108364;28;20166;-71
2021/08/29 01:34:12;;;;;;;8.75;5.70;;;;;;;24.02;48.37;102693.44;5084070;28;20036;-71
2021/08/29 01:36:41;;;;;;;8.80;5.88;;;;;;;24.02;48.48;102693.44;5087337;28;20036;-71
2021/08/29 01:39:08;;;;;;;9.05;6.25;;;;;;;24.02;48.11;102685.41;5103079;28;20097;-71
2021/08/29 01:41:36;;;;;;;7.28;5.55;;;;;;;24.02;48.19;102693.44;5078765;28;20043;-71
2021/08/29 01:44:04;;;;;;;7.43;5.25;;;;;;;24.02;48.47;102695.28;5082007;28;20026;-71
2021/08/29 01:46:29;;;;;;;8.60;5.70;;;;;;;24.01;48.40;102694.47;5095902;28;20045;-71
2021/08/29 01:48:55;;;;;;;9.18;6.07;;;;;;;24.03;48.33;102694.28;5077031;28;20040;-71
2021/08/29 01:51:21;;;;;;;8.32;5.10;;;;;;;24.02;48.36;102693.44;5090243;28;20099;-72
2021/08/29 01:53:46;;;;;;;7.38;5.07;;;;;;;24.01;48.47;102685.59;5076981;28;20028;-71
2021/08/29 01:56:12;;;;;;;7.55;5.05;;;;;;;24.01;48.45;102686.41;5102517;28;20032;-71
2021/08/29 01:58:38;;;;;;;7.03;5.43;;;;;;;24.02;48.59;102687.25;5063374;28;20078;-71
2021/08/29 02:01:09;;;;;;;7.75;5.68;;;;;;;24.01;48.12;102693.63;5083203;28;20382;-71
2021/08/29 02:03:35;;;;;;;7.85;5.20;;;;;;;24.02;48.08;102696.13;5095265;28;20031;-71
2021/08/29 02:06:07;;;;;;;9.25;5.65;;;;;;;23.99;48.19;102687.63;5089375;28;20132;-72
2021/08/29 02:08:36;;;;;;;6.55;5.00;;;;;;;24.01;48.31;102693.63;5099360;28;20035;-71
2021/08/29 02:11:04;;;;;;;7.63;5.35;;;;;;;24.01;48.31;102688.25;5113072;28;20050;-71
2021/08/29 02:13:31;;;;;;;7.03;5.38;;;;;;;24.00;48.02;102690.13;5102451;28;20023;-71
2021/08/29 02:16:02;;;;;;;6.57;4.80;;;;;;;24.01;48.24;102691.78;5096736;28;20107;-72
2021/08/29 02:18:31;;;;;;;7.95;5.30;;;;;;;24.01;48.10;102686.41;5079116;28;20036;-72
2021/08/29 02:20:58;;;;;;;9.40;5.45;;;;;;;24.01;48.02;102688.25;5101427;28;20028;-71
2021/08/29 02:23:26;;;;;;;6.88;4.68;;;;;;;24.01;48.45;102688.25;5112814;28;20050;-70
2021/08/29 02:25:52;;;;;;;7.80;5.40;;;;;;;24.01;47.92;102696.31;5083993;28;20028;-72
2021/08/29 02:28:18;;;;;;;9.10;5.60;;;;;;;24.00;48.23;102689.28;5102274;28;20039;-72
2021/08/29 02:30:43;;;;;;;8.85;5.32;;;;;;;23.99;48.17;102688.44;5059834;28;20379;-72
2021/08/29 02:33:10;;;;;;;6.50;4.65;;;;;;;24.00;47.96;102697.31;5089444;28;20119;-72
2021/08/29 02:35:37;;;;;;;7.30;4.78;;;;;;;24.00;48.05;102692.78;5082838;28;20040;-72
2021/08/29 02:38:04;;;;;;;7.22;4.60;;;;;;;24.01;47.79;102693.63;5085262;28;20089;-71
2021/08/29 02:40:36;;;;;;;6.22;4.88;;;;;;;23.98;47.87;102683.25;5093985;28;20043;-72
2021/08/29 02:43:03;;;;;;;6.63;4.60;;;;;;;24.01;47.89;102688.25;5094649;28;20494;-72
2021/08/29 02:45:29;;;;;;;7.65;5.20;;;;;;;23.99;47.68;102684.94;5090949;28;20058;-72
2021/08/29 02:47:54;;;;;;;7.22;4.38;;;;;;;24.00;47.65;102686.59;5086935;28;20042;-71
2021/08/29 02:50:22;;;;;;;7.78;4.40;;;;;;;23.99;47.61;102692.97;5104992;28;20046;-71
2021/08/29 02:52:48;;;;;;;6.03;4.20;;;;;;;23.99;47.96;102692.97;5086961;28;20097;-72
2021/08/29 02:55:15;;;;;;;5.78;4.10;;;;;;;23.99;47.59;102688.44;5083690;28;20044;-72
2021/08/29 02:57:45;;;;;;;5.47;4.25;;;;;;;23.98;47.61;102688.59;5070454;28;20373;-71
2021/08/29 03:00:12;;;;;;;5.88;4.13;;;;;;;23.99;47.87;102687.63;5081723;28;20569;-71
2021/08/29 03:02:37;;;;;;;6.15;4.65;;;;;;;23.99;47.67;102687.63;5087336;28;20130;-71
2021/08/29 03:05:03;;;;;;;5.53;4.05;;;;;;;23.98;47.73;102684.06;5093253;28;20061;-71
2021/08/29 03:07:29;;;;;;;6.05;4.47;;;;;;;23.99;47.63;102684.94;5077845;28;20028;-71
2021/08/29 03:09:54;;;;;;;5.85;3.75;;;;;;;23.98;47.40;102689.44;5110287;28;20570;-72
2021/08/29 03:12:20;;;;;;;5.45;3.95;;;;;;;23.98;47.81;102689.44;5109902;28;20389;-72
2021/08/29 03:14:46;;;;;;;5.93;4.35;;;;;;;23.98;47.90;102685.91;5090644;28;20046;-72
2021/08/29 03:17:12;;;;;;;5.95;4.18;;;;;;;23.97;47.69;102686.94;5103005;28;20028;-72
2021/08/29 03:19:39;;;;;;;8.38;4.20;;;;;;;23.98;47.57;102689.44;5104750;28;20487;-72
2021/08/29 03:22:05;;;;;;;5.28;4.00;;;;;;;23.97;47.67;102682.41;5087426;28;20049;-71
2021/08/29 03:24:31;;;;;;;8.55;4.63;;;;;;;23.98;47.54;102688.59;5077733;28;20036;-72
2021/08/29 03:26:56;;;;;;;5.18;3.83;;;;;;;23.97;47.45;102697.66;5073203;28;20101;-72
2021/08/29 03:29:22;;;;;;;5.25;3.60;;;;;;;23.97;47.83;102694.97;5077188;28;20474;-72
2021/08/29 03:31:48;;;;;;;5.22;3.85;;;;;;;23.97;47.86;102692.28;5104298;28;20101;-72
2021/08/29 03:34:16;;;;;;;5.05;3.65;;;;;;;23.97;47.38;102697.66;5099623;28;20036;-72
2021/08/29 03:36:44;;;;;;;5.53;3.70;;;;;;;23.96;47.52;102696.81;5110699;28;20102;-71
2021/08/29 03:39:11;;;;;;;5.07;4.03;;;;;;;23.97;47.40;102703.03;5074886;28;20059;-71
2021/08/29 03:41:40;;;;;;;6.70;4.30;;;;;;;23.96;47.52;102694.16;5104399;28;20066;-71
2021/08/29 03:44:08;;;;;;;6.47;3.83;;;;;;;23.97;47.54;102694.97;5076877;28;20035;-72
2021/08/29 03:46:35;;;;;;;4.72;3.70;;;;;;;23.96;47.44;102696.00;5103831;28;20040;-71
2021/08/29 03:49:00;;;;;;;5.60;3.75;;;;;;;23.96;47.34;102690.63;5095383;28;20501;-71
2021/08/29 03:51:26;;;;;;;5.30;3.42;;;;;;;23.96;47.34;102693.31;5093188;28;20036;-71
2021/08/29 03:53:51;;;;;;;5.43;3.95;;;;;;;23.95;47.43;102691.66;5107022;28;20458;-71
2021/08/29 03:56:18;;;;;;;6.07;4.03;;;;;;;23.95;47.11;102686.28;5091811;28;20427;-71
2021/08/29 03:58:44;;;;;;;5.22;3.65;;;;;;;23.95;47.53;102687.13;5076582;28;20051;-71
2021/08/29 04:01:10;;;;;;;6.28;3.90;;;;;;;23.95;47.33;102686.28;5081704;28;20697;-71
2021/08/29 04:03:36;;;;;;;6.57;3.53;;;;;;;23.95;46.96;102692.47;5093984;28;20436;-71
2021/08/29 04:06:03;;;;;;;6.10;3.83;;;;;;;23.95;47.61;102691.66;5103836;28;20039;-71
2021/08/29 04:08:50;;;;;;;5.93;3.88;;;;;;;23.95;47.35;102686.28;5101389;28;20072;-71
2021/08/29 04:11:22;;;;;;;4.75;3.55;;;;;;;23.94;47.12;102687.31;5095627;28;20046;-71
2021/08/29 04:13:48;;;;;;;5.40;3.92;;;;;;;23.94;47.53;102688.13;5096180;28;20047;-71
2021/08/29 04:16:14;;;;;;;5.82;3.67;;;;;;;23.94;47.46;102696.19;5089616;28;20033;-72
2021/08/29 04:18:42;;;;;;;6.22;3.53;;;;;;;23.94;47.24;102693.50;5093735;28;20130;-71
2021/08/29 04:21:09;;;;;;;4.80;3.22;;;;;;;23.94;47.14;102684.63;5095774;28;20970;-72
2021/08/29 04:23:35;;;;;;;5.25;3.63;;;;;;;23.95;47.54;102686.28;5072027;28;20463;-72
2021/08/29 04:26:00;;;;;;;6.63;3.88;;;;;;;23.94;47.46;102693.50;5078955;28;20040;-72
2021/08/29 04:28:26;;;;;;;6.13;3.78;;;;;;;23.94;47.17;102680.09;5083070;28;20062;-71
2021/08/29 04:30:54;;;;;;;5.97;3.85;;;;;;;23.94;47.40;102696.19;5071514;28;20024;-71
2021/08/29 04:33:20;;;;;;;6.57;3.80;;;;;;;23.94;47.42;102698.03;5054578;28;20123;-72
2021/08/29 04:35:45;;;;;;;5.57;3.85;;;;;;;23.94;47.26;102698.03;5054309;28;20551;-71
2021/08/29 04:38:11;;;;;;;6.72;4.18;;;;;;;23.93;47.50;102689.16;5098813;28;20055;-72
2021/08/29 04:40:36;;;;;;;5.78;3.75;;;;;;;23.94;47.40;102693.50;5088715;28;20022;-71
2021/08/29 04:43:02;;;;;;;6.10;3.70;;;;;;;23.94;47.47;102701.53;5054760;28;20870;-71
2021/08/29 04:45:27;;;;;;;5.30;3.90;;;;;;;23.95;47.49;102697.00;5070464;28;20051;-71
2021/08/29 04:47:53;;;;;;;5.82;3.83;;;;;;;23.95;47.47;102694.31;5070684;28;20635;-71
2021/08/29 04:50:18;;;;;;;7.05;4.05;;;;;;;23.94;47.85;102700.69;5058505;28;20076;-72
2021/08/29 04:52:44;;;;;;;6.22;3.90;;;;;;;23.94;47.76;102695.34;5077923;28;20531;-72
2021/08/29 04:55:09;;;;;;;4.85;3.88;;;;;;;23.95;47.86;102697.00;5102409;28;20089;-71
2021/08/29 04:57:35;;;;;;;6.57;4.53;;;;;;;23.94;48.09;102693.50;5103379;28;20119;-71
2021/08/29 05:00:00;;;;;;;5.95;3.97;;;;;;;23.94;48.21;102695.34;5092245;28;20035;-71
2021/08/29 05:02:26;;;;;;;5.22;3.55;;;;;;;23.95;48.12;102697.84;5093183;28;20340;-71
2021/08/29 05:04:51;;;;;;;6.05;4.45;;;;;;;23.95;48.48;102691.66;5050314;28;20061;-72
2021/08/29 05:07:17;;;;;;;5.75;3.90;;;;;;;23.95;48.29;102694.31;5054171;28;20036;-71
2021/08/29 05:09:42;;;;;;;5.75;4.00;;;;;;;23.96;48.44;102693.31;5108135;28;20062;-72
2021/08/29 05:12:08;;;;;;;5.80;4.30;;;;;;;23.96;48.63;102698.66;5069806;28;20540;-72
2021/08/29 05:14:34;;;;;;;6.30;4.30;;;;;;;23.95;48.57;102691.66;5095581;28;20032;-72
2021/08/29 05:16:59;;;;;;;4.78;3.75;;;;;;;23.96;48.56;102694.16;5065291;28;20122;-71
2021/08/29 05:19:24;;;;;;;6.68;4.03;;;;;;;23.95;49.02;102697.00;5057076;28;20218;-73
2021/08/29 05:21:50;;;;;;;5.47;4.13;;;;;;;23.96;49.15;102693.31;5092449;28;20032;-72
2021/08/29 05:24:15;;;;;;;6.57;4.22;;;;;;;23.95;49.25;102688.97;5090705;28;20127;-72
2021/08/29 05:26:41;;;;;;;5.22;3.90;;;;;;;23.96;49.10;102687.94;5066479;28;20064;-72
2021/08/29 05:29:06;;;;;;;5.50;4.25;;;;;;;23.96;49.23;102693.31;5099499;28;20040;-72
2021/08/29 05:31:32;;;;;;;6.20;4.28;;;;;;;23.96;49.04;102696.00;5089446;28;20032;-73
2021/08/29 05:33:57;;;;;;;6.03;4.10;;;;;;;23.95;49.01;102688.97;5101026;28;20471;-72
2021/08/29 05:36:23;;;;;;;5.82;4.07;;;;;;;23.95;49.34;102691.66;5101877;28;20051;-73
2021/08/29 05:38:48;;;;;;;6.32;4.03;;;;;;;23.96;49.63;102698.66;5088362;28;20051;-72
2021/08/29 05:41:13;;;;;;;6.32;4.00;;;;;;;23.96;49.67;102698.66;5053804;28;20040;-73
2021/08/29 05:43:39;;;;;;;6.18;4.15;;;;;;;23.96;49.82;102704.03;5096946;28;20166;-73
2021/08/29 05:46:04;;;;;;;5.55;4.00;;;;;;;23.96;49.66;102701.34;5090587;28;20502;-72
2021/08/29 05:48:31;;;;;;;5.25;3.25;;;;;;;23.95;49.66;102708.56;5090418;28;20038;-73
2021/08/29 05:50:56;;;;;;;5.47;3.25;;;;;;;23.95;49.91;102703.19;5102513;28;20112;-73
2021/08/29 05:53:22;;;;;;;5.78;4.10;;;;;;;23.95;49.84;102711.25;5108890;28;20478;-73
2021/08/29 05:55:47;;;;;;;6.72;4.40;;;;;;;23.95;49.62;102711.25;5102886;28;20032;-72
2021/08/29 05:58:13;;;;;;;5.60;3.78;;;;;;;23.96;50.12;102709.41;5060213;28;20032;-73
2021/08/29 06:00:38;;;;;;;5.40;3.95;;;;;;;23.95;50.14;102711.25;5076549;28;20538;-73
2021/08/29 06:03:03;;;;;;;6.47;4.07;;;;;;;23.96;50.05;102707.53;5103609;28;20038;-72
2021/08/29 06:05:30;;;;;;;5.82;3.85;;;;;;;23.95;50.06;102708.56;5093234;28;20399;-73
2021/08/29 06:07:56;;;;;;;6.18;4.22;;;;;;;23.95;50.21;102707.72;5075801;28;20035;-72
2021/08/29 06:10:21;;;;;;;10.65;4.80;;;;;;;23.96;50.23;102707.53;5106810;28;20428;-73
2021/08/29 06:12:47;;;;;;;6.72;4.30;;;;;;;23.96;50.36;102712.06;5106988;28;20397;-74
2021/08/29 06:15:13;;;;;;;7.57;4.97;;;;;;;23.96;50.20;102710.22;5101500;28;20036;-73
2021/08/29 06:17:38;;;;;;;7.22;4.20;;;;;;;23.95;50.35;102710.41;5097733;28;20032;-73
2021/08/29 06:20:05;;;;;;;6.40;3.97;;;;;;;23.96;50.43;102717.44;5101349;28;20209;-73
2021/08/29 06:22:31;;;;;;;6.60;4.63;;;;;;;23.95;50.24;102708.56;5054021;28;20127;-73
2021/08/29 06:24:56;;;;;;;7.22;5.15;;;;;;;23.95;50.44;102707.72;5087034;28;20711;-72
2021/08/29 06:27:22;;;;;;;6.20;4.38;;;;;;;23.96;50.64;102704.03;5072645;28;20032;-72
2021/08/29 06:29:47;;;;;;;6.38;4.20;;;;;;;23.95;50.57;102705.06;5071665;28;20036;-72
2021/08/29 06:32:13;;;;;;;8.48;5.10;;;;;;;23.94;50.28;102706.91;5083618;28;20051;-72
2021/08/29 06:34:38;;;;;;;7.45;4.95;;;;;;;23.95;50.58;102702.38;5108498;28;20470;-73
2021/08/29 06:37:04;;;;;;;7.82;5.15;;;;;;;23.95;50.42;102707.72;5112269;28;20111;-74
2021/08/29 06:39:29;;;;;;;7.57;4.85;;;;;;;23.95;50.29;102710.41;5077034;28;20403;-72
2021/08/29 06:41:55;;;;;;;7.13;4.80;;;;;;;23.95;50.56;102702.38;5107862;28;20428;-72
2021/08/29 06:44:20;;;;;;;6.70;4.57;;;;;;;23.94;50.50;102709.56;5112119;28;20362;-72
2021/08/29 06:46:45;;;;;;;7.65;5.32;;;;;;;23.94;50.21;102706.91;5111801;28;20039;-73
2021/08/29 06:49:12;;;;;;;8.55;5.70;;;;;;;23.94;50.49;102712.25;5111091;28;20052;-72
2021/08/29 06:51:38;;;;;;;7.72;5.00;;;;;;;23.94;50.47;102712.25;5038925;28;20052;-72
2021/08/29 06:54:03;;;;;;;9.30;5.47;;;;;;;23.94;50.45;102712.25;5103710;28;20042;-73
2021/08/29 06:56:29;;;;;;;9.77;6.28;;;;;;;23.94;50.38;102716.78;5101680;28;20070;-73
2021/08/29 06:58:54;;;;;;;9.00;5.90;;;;;;;23.94;50.25;102716.78;5090597;28;20042;-73
2021/08/29 07:01:20;;;;;;;7.28;5.32;;;;;;;23.94;50.52;102706.06;5103203;28;20119;-73
2021/08/29 07:03:45;;;;;;;8.90;5.97;;;;;;;23.94;50.51;102719.47;5093134;28;20074;-73
2021/08/29 07:06:11;;;;;;;9.82;6.50;;;;;;;23.93;50.52;102710.59;5086051;28;20130;-72
2021/08/29 07:08:36;;;;;;;10.80;6.70;;;;;;;23.93;50.76;102712.44;5061960;28;20033;-72
2021/08/29 07:11:02;;;;;;;9.70;5.57;;;;;;;23.93;50.44;102713.28;5101864;28;20043;-72
2021/08/29 07:13:27;;;;;;;9.93;6.13;;;;;;;23.93;50.46;102712.44;5096942;28;20055;-73
2021/08/29 07:15:53;;;;;;;9.52;6.30;;;;;;;23.93;50.46;102710.59;5072721;28;20052;-73
2021/08/29 07:18:18;;;;;;;11.32;6.82;;;;;;;23.93;50.48;102713.28;5104193;28;20066;-73
2021/08/29 07:20:43;;;;;;;9.35;5.90;;;;;;;23.93;50.70;102713.28;5100519;28;20372;-73
2021/08/29 07:23:09;;;;;;;12.95;7.50;;;;;;;23.92;50.44;102711.59;5072229;28;20853;-76
2021/08/29 07:25:35;;;;;;;10.73;7.05;;;;;;;23.93;50.85;102710.59;5099139;28;20535;-74
2021/08/29 07:28:04;;;;;;;10.13;6.60;;;;;;;23.90;50.53;102710.97;5086352;28;20050;-79
2021/08/29 07:30:30;;;;;;;11.63;6.78;;;;;;;23.91;50.72;102707.25;5098176;28;20036;-80
2021/08/29 07:32:55;;;;;;;13.00;6.03;;;;;;;23.91;50.86;102712.63;5091592;28;20735;-79
2021/08/29 07:35:20;;;;;;;10.13;6.32;;;;;;;23.90;51.11;102711.78;5052550;28;20086;-79
2021/08/29 07:37:46;;;;;;;12.48;6.80;;;;;;;23.91;50.98;102712.63;5106093;28;20052;-77
2021/08/29 07:40:12;;;;;;;19.60;7.65;;;;;;;23.93;51.24;102709.75;5098919;28;20043;-79
2021/08/29 07:42:37;;;;;;;11.18;6.80;;;;;;;23.94;51.48;102716.78;5099415;28;20106;-76
2021/08/29 07:45:03;;;;;;;10.27;6.63;;;;;;;23.94;51.45;102708.75;5079172;28;20123;-74
2021/08/29 07:47:29;;;;;;;12.38;6.50;;;;;;;23.95;51.61;102715.78;5086073;28;20143;-76
2021/08/29 07:49:55;;;;;;;11.85;5.85;;;;;;;23.95;51.98;102705.06;5066303;28;20040;-73
2021/08/29 07:52:20;;;;;;;9.85;6.03;;;;;;;23.96;51.71;102709.41;5082094;28;20043;-72
2021/08/29 07:54:46;;;;;;;12.10;6.20;;;;;;;23.96;51.95;102715.59;5081548;28;20050;-73
2021/08/29 07:57:11;;;;;;;11.45;6.03;;;;;;;23.96;52.05;102709.41;5079490;28;20025;-73
2021/08/29 07:59:36;;;;;;;15.52;5.93;;;;;;;23.96;52.23;102720.13;5083223;28;20102;-71
2021/08/29 08:02:02;;;;;;;10.77;5.80;;;;;;;23.97;52.01;102713.75;5101210;28;20036;-71
2021/08/29 08:04:27;;;;;;;13.43;6.43;;;;;;;23.97;52.39;102711.06;5059550;28;20038;-72
2021/08/29 08:06:53;;;;;;;11.02;5.70;;;;;;;23.98;52.47;102707.38;5079365;28;20043;-71
2021/08/29 08:09:18;;;;;;;15.40;6.43;;;;;;;23.97;52.29;102713.75;5091680;28;20051;-73
2021/08/29 08:11:44;;;;;;;10.07;5.60;;;;;;;23.97;52.29;102714.56;5083142;28;20067;-72
2021/08/29 08:14:09;;;;;;;12.23;6.18;;;;;;;23.97;52.57;102717.25;5085054;28;20055;-70
2021/08/29 08:16:35;;;;;;;13.93;6.43;;;;;;;23.98;52.51;102707.38;5084476;28;20561;-69
2021/08/29 08:19:00;;;;;;;11.68;5.95;;;;;;;23.98;52.62;102702.00;5084783;28;20211;-68
2021/08/29 08:21:26;;;;;;;19.73;7.03;;;;;;;24.00;52.43;102710.72;5102002;28;20039;-69
2021/08/29 08:23:51;;;;;;;9.68;6.32;;;;;;;23.99;52.69;102709.06;5084752;28;20040;-71
2021/08/29 08:26:17;;;;;;;11.60;6.07;;;;;;;23.98;52.62;102713.56;5036241;28;20044;-69
2021/08/29 08:28:42;;;;;;;12.10;6.65;;;;;;;24.00;52.71;102706.19;5066303;28;20042;-70
2021/08/29 08:31:08;;;;;;;11.40;5.80;;;;;;;24.00;52.80;102714.25;5070937;28;20085;-70
2021/08/29 08:33:33;;;;;;;11.15;6.13;;;;;;;24.00;52.53;102711.56;5103174;28;20036;-70
2021/08/29 08:35:58;;;;;;;13.75;7.10;;;;;;;24.01;52.95;102713.22;5103627;28;20430;-71
2021/08/29 08:38:24;;;;;;;17.27;6.70;;;;;;;24.01;52.72;102707.03;5084993;28;20484;-70
2021/08/29 08:40:50;;;;;;;15.07;6.45;;;;;;;24.02;52.49;102711.38;5079427;28;20044;-69
2021/08/29 08:43:16;;;;;;;13.00;6.63;;;;;;;24.01;52.88;102713.22;5082102;28;20051;-72
2021/08/29 08:45:46;;;;;;;15.98;7.82;;;;;;;24.01;52.88;102710.53;5086516;28;20040;-68
2021/08/29 08:48:12;;;;;;;16.48;7.80;;;;;;;24.00;52.79;102706.19;5086455;28;20028;-68
2021/08/29 08:50:42;;;;;;;16.15;8.75;;;;;;;24.00;53.02;102706.19;5050176;28;20638;-70
2021/08/29 08:53:07;;;;;;;18.75;8.23;;;;;;;23.99;52.99;102714.41;5083456;28;20040;-73
2021/08/29 08:55:33;;;;;;;19.35;9.45;;;;;;;23.98;52.79;102712.72;5089653;28;20108;-65
2021/08/29 08:58:00;;;;;;;17.45;9.10;;;;;;;23.98;52.89;102707.38;5085710;28;20449;-69
2021/08/29 09:00:26;;;;;;;16.02;9.32;;;;;;;23.97;52.82;102714.56;5086716;28;20225;-69
2021/08/29 09:02:52;;;;;;;17.05;9.55;;;;;;;23.97;52.76;102716.41;5090018;28;20039;-70
2021/08/29 09:05:18;;;;;;;16.77;9.70;;;;;;;23.97;53.20;102714.56;5098421;28;20104;-69
2021/08/29 09:07:44;;;;;;;16.92;8.63;;;;;;;23.97;53.46;102716.41;5097502;28;20055;-68
2021/08/29 09:10:11;;;;;;;20.20;9.45;;;;;;;23.96;53.40;102715.59;5104071;28;20142;-68
2021/08/29 09:12:36;;;;;;;23.05;9.80;;;;;;;23.95;53.58;102713.91;5100957;28;20081;-68
2021/08/29 09:15:02;;;;;;;22.13;10.40;;;;;;;23.95;53.42;102718.44;5089391;28;20032;-68
2021/08/29 09:17:37;;;;;;;23.67;9.50;;;;;;;23.93;53.24;102720.47;5089242;28;20032;-68
2021/08/29 09:20:16;;;;;;;;;;;;;;;23.84;53.39;102725.94;5097597;28;20032;-68
2021/08/29 09:22:43;;;;;;;23.92;9.63;;;;;;;23.92;53.71;102719.66;5104477;28;20002;-69
2021/08/29 09:25:29;;;;;;;17.33;9.25;;;;;;;23.88;53.73;102723.72;5095519;28;20044;-68
2021/08/29 09:28:00;;;;;;;17.58;7.97;;;;;;;23.90;53.54;102722.50;5085209;28;20044;-68
2021/08/29 09:30:29;;;;;;;13.93;7.85;;;;;;;23.90;53.40;102716.31;5087602;28;20105;-68
2021/08/29 09:33:00;;;;;;;16.98;7.57;;;;;;;23.88;53.46;102721.03;5089723;28;20093;-68
2021/08/29 09:35:29;;;;;;;13.25;6.65;;;;;;;23.88;53.22;102721.03;5068772;28;20036;-68
2021/08/29 09:37:56;;;;;;;12.20;5.68;;;;;;;23.86;53.24;102726.56;5085633;28;20144;-69
2021/08/29 09:40:22;;;;;;;9.85;5.95;;;;;;;23.86;53.51;102723.06;5069146;28;20039;-68
2021/08/29 09:42:50;;;;;;;8.40;5.20;;;;;;;23.85;53.37;102727.59;5069053;28;20067;-69
2021/08/29 09:45:23;;;;;;;10.10;5.32;;;;;;;23.82;53.63;102724.41;5063496;28;20071;-70
2021/08/29 09:47:49;;;;;;;8.30;4.40;;;;;;;23.84;53.35;102725.94;5070957;28;20032;-68
2021/08/29 09:50:22;;;;;;;8.18;4.80;;;;;;;23.83;53.52;102726.09;5069531;28;20120;-68
2021/08/29 09:52:47;;;;;;;8.00;4.45;;;;;;;23.83;53.45;102721.56;5070785;28;20028;-68
2021/08/29 09:55:13;;;;;;;6.68;4.95;;;;;;;23.82;53.25;102725.25;5071662;28;20039;-68
2021/08/29 09:57:39;;;;;;;7.28;4.10;;;;;;;23.83;53.24;102731.47;5055134;28;20048;-68
2021/08/29 10:00:08;;;;;;;7.63;4.03;;;;;;;23.80;53.32;102735.31;5069688;28;20045;-68
2021/08/29 10:02:34;;;;;;;6.40;4.60;;;;;;;23.81;53.39;102739.66;5063591;28;20039;-68
2021/08/29 10:05:17;;;;;;;5.90;3.65;;;;;;;23.79;53.32;102733.66;5083459;28;20044;-68
2021/08/29 10:08:04;;;;;;;5.38;3.50;;;;;;;23.76;53.23;102741.22;5077415;28;20100;-68
2021/08/29 10:10:31;;;;;;;6.55;3.90;;;;;;;23.78;53.51;102736.50;5073930;28;20142;-68
2021/08/29 10:12:58;;;;;;;6.43;3.70;;;;;;;23.77;53.27;102738.34;5072335;28;20037;-69
2021/08/29 10:15:24;;;;;;;5.90;3.17;;;;;;;23.77;53.31;102740.19;5083700;28;20107;-69
2021/08/29 10:17:51;;;;;;;4.82;3.20;;;;;;;23.75;53.15;102740.38;5087489;28;20507;-68
2021/08/29 10:20:21;;;;;;;4.70;2.92;;;;;;;23.74;53.06;102737.88;5085535;28;20044;-68
2021/08/29 10:22:50;;;;;;;5.35;3.05;;;;;;;23.71;53.15;102736.41;5085650;28;20031;-68
2021/08/29 10:25:17;;;;;;;5.45;3.30;;;;;;;23.72;53.07;102738.06;5086026;28;20036;-68
2021/08/29 10:27:48;;;;;;;5.32;3.13;;;;;;;23.72;52.86;102735.38;5084466;28;20093;-68
2021/08/29 10:30:15;;;;;;;4.60;3.10;;;;;;;23.71;52.84;102733.72;5059498;28;20407;-69
2021/08/29 10:32:45;;;;;;;4.75;3.33;;;;;;;23.71;52.79;102732.88;5092798;28;20036;-68
2021/08/29 10:35:13;;;;;;;5.05;3.65;;;;;;;23.69;52.59;102730.38;5088208;28;20328;-68
2021/08/29 10:37:41;;;;;;;5.32;3.05;;;;;;;23.70;52.55;102728.53;5054136;28;20094;-68
2021/08/29 10:40:08;;;;;;;5.70;3.22;;;;;;;23.69;52.74;102721.50;5087315;28;20042;-68
2021/08/29 10:42:37;;;;;;;5.35;3.60;;;;;;;23.68;52.63;102722.53;5066431;28;20064;-68
2021/08/29 10:45:03;;;;;;;6.05;3.03;;;;;;;23.66;52.77;102720.00;5063573;28;20089;-68
2021/08/29 10:47:30;;;;;;;4.75;2.92;;;;;;;23.64;52.50;102727.38;5092479;28;20074;-68
2021/08/29 10:49:57;;;;;;;5.53;3.10;;;;;;;23.65;52.50;102720.19;5078661;28;20036;-69
2021/08/29 10:52:28;;;;;;;5.47;3.30;;;;;;;23.64;52.42;102722.03;5085740;28;20033;-68
2021/08/29 10:54:55;;;;;;;5.60;3.28;;;;;;;23.64;52.58;102719.34;5070382;28;20070;-67
2021/08/29 10:57:30;;;;;;;4.50;3.13;;;;;;;23.61;52.17;102717.03;5076604;28;20034;-69
2021/08/29 11:00:04;;;;;;;7.40;3.70;;;;;;;23.62;52.59;102720.53;5059598;28;20044;-68
2021/08/29 11:02:37;;;;;;;6.40;3.63;;;;;;;23.62;52.68;102718.69;5089122;28;20028;-67
2021/08/29 11:05:03;;;;;;;8.90;3.38;;;;;;;23.63;52.45;102717.69;5077089;28;20037;-71
2021/08/29 11:07:48;;;;;;;6.75;3.70;;;;;;;23.60;52.98;102716.19;5084635;28;20392;-71
2021/08/29 11:10:37;;;;;;;9.50;3.80;;;;;;;23.60;52.98;102723.41;5082126;28;20385;-69
2021/08/29 11:13:34;;;;;;;10.27;4.40;;;;;;;23.61;53.00;102719.69;5058878;28;20086;-72
2021/08/29 11:16:12;;;;;;;10.07;3.65;;;;;;;23.63;53.21;102720.34;5068329;28;20034;-68
2021/08/29 11:18:59;;;;;;;12.05;3.63;;;;;;;23.62;53.47;102721.38;5093517;28;20069;-68
2021/08/29 11:21:44;;;;;;;10.68;4.00;;;;;;;23.63;53.37;102719.53;5067635;28;20032;-68
2021/08/29 11:24:10;;;;;;;6.25;3.22;;;;;;;23.67;53.44;102727.06;5072048;28;20032;-68